Main page
METAR-TAF:

METAR-TAF

Airports :

Cherbourg – Maupertus Airport

Cherbourg, France

latitude: 49-39N, longitude: 001-28W, elevation: 138 m

Current weather observation

The report was made 39 minutes ago, at 20:30 UTC
Wind 13 kt from the West/Southwest
Temperature 15°C
Humidity 82%
Pressure
Visibility 10 km or more
Few clouds at a height of 1600 ft
Broken clouds at a height of 7200 ft

METAR: LFRC 282030Z AUTO 25013KT 9999 FEW016 BKN072 15/12 Q////

Time: 23:09 (21:09 UTC)

Forecast

The report was made 7 hours and 9 minutes ago, at 14:00 UTC
Forecast valid from 28 at 15 UTC to 28 at 24 UTC
Wind 18 kt from the West/Southwest with gusts up to 30 kt
Visibility 10 km or more
Broken clouds at a height of 3500 ft
Probability 30% :
Temporary
from 28 at 15 UTC to 28 at 18 UTC
Scattered clouds at a height of 2000 ft, Towering cumulus.
rain showers

TAF: LFRC 281400Z 2815/2824 25018G30KT 9999 BKN035 PROB30 TEMPO 2815/2818 SHRA SCT020TCU

Weather observations and forecasts of more than 4000 airports (METAR and TAF reports).

The available stations are represented by yellow and red dots on the map.

Hover mouse over dot to see the name of the station.

Then click to see weather observations and forecasts.

To change the map : click on the green buttons with a black cross to zoom in, on the green button with a dash to zoom out, or on the green arrows for adjacent maps.


METAR-TAF: